Accueil
METAR-TAF:

METAR-TAF

Aéroports :

The Dalles, Oregon, États-Unis

latitude: 45-37-07N, longitude: 121-10-02W, altitude: 75 m

Observation

Le bulletin a été fait il y a 1 heure et 10 minutes, à 08:53 UTC
Vent 3 kt de sud/sud-ouest
Température 21°C
Humidité 46%
Pression 1016 hPa
Visibilité: 16.1 km
Ciel clair

METAR: KDLS 190853Z AUTO 20003KT 10SM CLR 21/09 A3000 RMK AO2 SLP157 T02060094 50001

Heure: 03:03 (10:03 UTC)

Prévision

Le bulletin a été fait il y a 4 heures et 43 minutes, à 05:20 UTC
Prévision valable du 19 à 06 UTC au 20 à 06 UTC
Vent 8 kt de nord-ouest avec des rafales jusqu'à 15 kt
Visibilité: 10 km
Ciel clair
A partir de 19 à 0900 UTC
Vent 7 kt de nord-ouest
Visibilité: 10 km
Ciel clair
A partir de 19 à 1800 UTC
Vent 9 kt de nord-ouest
Visibilité: 10 km
Quelques nuages à une hauteur de 12000 ft

TAF: KDLS 190520Z 1906/2006 32008G15KT P6SM SKC FM190900 31007KT P6SM SKC FM191800 32009KT P6SM FEW120

Observations et prévisions météorologiques de plus de 4000 aéroports (messages METAR et TAF).

Les stations disponibles sont représentées par des disques jaunes et rouges sur la carte.

Passer la souris dessus pour voir le nom de la station.

Cliquer dessus pour voir les observations et prévisions météorologiques.

Pour changer de carte: cliquez sur les boutons verts avec une croix noire pour zoomer, sur le bouton vert avec un tiret pour effectuer un zoom arrière, ou sur les flèches vertes pour les cartes adjacentes.


METAR-TAF: